Marin Sunshine — WDE5919 — position and weather

sailwx.info

Track history (hours):
 
Tides and Currents Weather Stations Pressure Air Temp Water Temp Dewpoint Dewpoint Depression Visibility Wind Speed Wind Dir Waves Ship Positions

Marin Sunshine

Owner: Marine Express, alameda, CA. More information available from US FCC via Universal Licensing System and Coast Guard Vessel Documentation Center.

Last reported at 2016-Dec-07 15:34 UTC. Time now 2016-Dec-10 09:01 UTC.
Position N 37°57' W 121°21'.

MMSI: 367373280.

Date/timePositionNaut miles runAvg speedWind from/ knotsBaromVisibWave heightAir tempDewpointWater temp
2016-Dec-07 15:34N 37°57' W 121°21'1 0.9
2016-Dec-07 14:33N 37°57' W 121°20'1 0.0
2016-Dec-06 00:27N 37°58' W 121°22'1 0.8
2016-Dec-05 23:34N 37°57' W 121°21'1 1.0
2016-Dec-05 22:33N 37°57' W 121°20'3 2.8
2016-Dec-05 21:33N 37°59' W 121°23'3 0.1
2016-Dec-05 00:33N 37°57' W 121°20'0 0.0
2016-Dec-04 23:33N 37°57' W 121°20'2 1.8
2016-Dec-04 22:33N 37°58' W 121°22'1 0.5
2016-Dec-04 21:33N 37°58' W 121°22'0 0.2
2016-Dec-04 20:33N 37°58' W 121°22'0 0.0
2016-Dec-04 19:33N 37°58' W 121°22'0 0.0
2016-Dec-03 06:23N 37°58' W 121°22'1 1.1
2016-Dec-03 05:34N 37°57' W 121°21'1 0.9
2016-Dec-03 04:33N 37°58' W 121°22'0 0.0
2016-Dec-02 15:19N 37°58' W 121°22'0 0.0
2016-Dec-02 14:33N 37°58' W 121°22'1 0.4
2016-Dec-02 12:34N 37°57' W 121°21'1 1.0
2016-Dec-02 11:33N 37°57' W 121°20'2 1.8
2016-Dec-02 10:34N 37°58' W 121°22'0 0.1
2016-Dec-02 09:34N 37°58' W 121°22'0 0.0
2016-Dec-02 08:34N 37°58' W 121°22'0 0.0
2016-Nov-30 23:04N 37°58' W 121°22'0 0.3
2016-Nov-30 22:33N 37°58' W 121°22'2 2.2
2016-Nov-30 21:33N 37°57' W 121°19'3 3.0
2016-Nov-30 20:33N 37°58' W 121°23'1 0.8
2016-Nov-30 19:33N 37°58' W 121°22'0 0.0
2016-Nov-30 18:33N 37°58' W 121°22'  
Track history (hours):
 
Tides and Currents Weather Stations Pressure Air Temp Water Temp Dewpoint Dewpoint Depression Visibility Wind Speed Wind Dir Waves Ship Positions

Marin Sunshine

Owner: Marine Express, alameda, CA. More information available from US FCC via Universal Licensing System and Coast Guard Vessel Documentation Center.

Last reported at 2016-Dec-07 15:34 UTC. Time now 2016-Dec-10 09:01 UTC.
Position N 37°57' W 121°21'.

MMSI: 367373280.

Date/timePositionNaut miles runAvg speedWind from/ knotsBaromVisibWave heightAir tempDewpointWater temp
2016-Dec-07 15:34N 37°57' W 121°21'1 0.9
2016-Dec-07 14:33N 37°57' W 121°20'1 0.0
2016-Dec-06 00:27N 37°58' W 121°22'1 0.8
2016-Dec-05 23:34N 37°57' W 121°21'1 1.0
2016-Dec-05 22:33N 37°57' W 121°20'3 2.8
2016-Dec-05 21:33N 37°59' W 121°23'3 0.1
2016-Dec-05 00:33N 37°57' W 121°20'0 0.0
2016-Dec-04 23:33N 37°57' W 121°20'2 1.8
2016-Dec-04 22:33N 37°58' W 121°22'1 0.5
2016-Dec-04 21:33N 37°58' W 121°22'0 0.2
2016-Dec-04 20:33N 37°58' W 121°22'0 0.0
2016-Dec-04 19:33N 37°58' W 121°22'0 0.0
2016-Dec-03 06:23N 37°58' W 121°22'1 1.1
2016-Dec-03 05:34N 37°57' W 121°21'1 0.9
2016-Dec-03 04:33N 37°58' W 121°22'0 0.0
2016-Dec-02 15:19N 37°58' W 121°22'0 0.0
2016-Dec-02 14:33N 37°58' W 121°22'1 0.4
2016-Dec-02 12:34N 37°57' W 121°21'1 1.0
2016-Dec-02 11:33N 37°57' W 121°20'2 1.8
2016-Dec-02 10:34N 37°58' W 121°22'0 0.1
2016-Dec-02 09:34N 37°58' W 121°22'0 0.0
2016-Dec-02 08:34N 37°58' W 121°22'0 0.0
2016-Nov-30 23:04N 37°58' W 121°22'0 0.3
2016-Nov-30 22:33N 37°58' W 121°22'2 2.2
2016-Nov-30 21:33N 37°57' W 121°19'3 3.0
2016-Nov-30 20:33N 37°58' W 121°23'1 0.8
2016-Nov-30 19:33N 37°58' W 121°22'0 0.0
2016-Nov-30 18:33N 37°58' W 121°22'  

Dump ship's entire track history